KLQK Airport (Pickens County) Information

FAA: LQK - ICAO: KLQK

KLQK Airport Location

State South Carolina
County Pickens
City Pickens
KLQK Airport is 4 miles south of Pickens, SC.
Latitude 34-48-35.9000N
Longitude 082-42-10.4000W
Elevation 1,013ft

KLQK Airport METARs

METAR KLQK 180835Z AUTO 31003KT 10SM CLR 04/04 A3017 RMK AO2 T00380035
Altimeter 30.17"
Temperature 3.8°C (38.8°F)
Wind 310° at 3KT
Clouds Skies are clear.
Visibility 10.0mi
Time observed: 2021-10-18T08:35:00Z

KLQK Airport Details

Status Operational
Activation N/A
Ownership Public
Usage Public
Chart ATLANTA
ATC on-site No
Beacon schedule sunset-sunrise
Beacon color clear green

KLQK Airport Contacts

Owner PICKENS COUNTY
Owner address 222 MCDANIEL AVE; B-2, PICKENS, SC 29671
Owner phone (864) 898-5844
Manager MARGARET PITTMAN
Manager address 225 AIRPORT COURT, MULLINS, SC 29574
Manager phone 843-423-8265

KLQK Airport (Pickens County) Radio Frequencies

KLQK (Airport) Radio Frequencies

UNICOM 122.8
Common traffic advisory frequency (CTAF) 122.8